Time;durP1;ratioP1;P1;durP2;ratioP2;P2;SDS_P1;SDS_P2;PMS_P1;PMS_P2;Temp;Humidity;BMP_temperature;BMP_pressure;BME280_temperature;BME280_humidity;BME280_pressure;Samples;Min_cycle;Max_cycle;Signal;HPM_P1;HPM_P2
2022/05/27 00:00:00;;;;;;;;;;;;;;;;;;348967;28;1716;-71
2022/05/27 00:00:11;;;;;;;;;;;;;;;;;;349888;28;973;-71
2022/05/27 00:00:22;;;;;;;;;;;;;;;;;;349846;28;1075;-71
2022/05/27 00:00:32;;;;;;;;;;;;;;;;;;349930;28;979;-71
2022/05/27 00:00:44;;;;;;;;;;;;;;;;;;349903;28;1024;-72
2022/05/27 00:00:54;;;;;;;;;;;;;;;;;;349907;28;948;-71
2022/05/27 00:01:04;;;;;;;;;;;;;;;;;;349908;28;972;-71
2022/05/27 00:01:16;;;;;;;;;;;;;;;;;;349740;28;1162;-71
2022/05/27 00:01:27;;;;;;;;;;;;;;;;;;349857;28;1020;-71
2022/05/27 00:01:37;;;;;;;;;;;;;;;;;;349957;28;983;-71
2022/05/27 00:01:47;;;;;;;;;;;;;;;;;;349884;28;940;-71
2022/05/27 00:02:01;;;;;;;;;;;;;;;;;;349862;28;933;-71
2022/05/27 00:02:11;;;;;;;;;;;;;;;;;;348237;28;1378;-71
2022/05/27 00:02:21;;;;;;;;;;;;;;;;;;348502;28;992;-70
2022/05/27 00:02:32;;;;;;;;;;;;;;;;;;348384;28;1156;-71
2022/05/27 00:02:42;;;;;;;;;;;;;;;;;;348488;28;909;-71
2022/05/27 00:02:53;;;;;;;;;;;;;;;;;;348517;28;948;-71
2022/05/27 00:03:03;;;;;;;;;;;;;;;;;;348730;28;1063;-71
2022/05/27 00:03:13;;;;;;;;;;;;;;;;;;348823;28;908;-71
2022/05/27 00:03:23;;;;;;;;;;;;;;;;;;348779;28;921;-72
2022/05/27 00:03:34;;;;;;;;;;;;;;;;;;348758;28;996;-71
2022/05/27 00:03:44;;;;;;;;;;;;;;;;;;348568;28;1031;-71
2022/05/27 00:03:56;;;;;;;;;;;;;;;;;;348691;28;1050;-71
2022/05/27 00:04:06;;;;;;;;;;;;;;;;;;348744;28;1083;-71
2022/05/27 00:04:16;;;;;;;;;;;;;;;;;;348782;28;996;-71
2022/05/27 00:04:27;;;;;;;;;;;;;;;;;;348273;28;1399;-71
2022/05/27 00:04:37;;;;;;;;;;;;;;;;;;348829;28;893;-71
2022/05/27 00:04:47;;;;;;;;;;;;;;;;;;348810;28;921;-72
2022/05/27 00:04:57;;;;;;;;;;;;;;;;;;348772;28;956;-71
2022/05/27 00:05:08;;;;;;;;;;;;;;;;;;348759;28;929;-72
2022/05/27 00:05:19;;;;;;;;;;;;;;;;;;348780;28;928;-71
2022/05/27 00:05:29;;;;;;;;;;;;;;;;;;348836;28;874;-71
2022/05/27 00:05:39;;;;;;;;;;;;;;;;;;348752;28;858;-71
2022/05/27 00:05:50;;;;;;;;;;;;;;;;;;348822;28;992;-71
2022/05/27 00:06:01;;;;;;;;;;;;;;;;;;348748;28;937;-71
2022/05/27 00:06:11;;;;;;;;;;;;;;;;;;348758;28;822;-71
2022/05/27 00:06:21;;;;;;;;;;;;;;;;;;348814;28;924;-71
2022/05/27 00:06:31;;;;;;;;;;;;;;;;;;348814;28;964;-71
2022/05/27 00:06:42;;;;;;;;;;;;;;;;;;348808;28;834;-71
2022/05/27 00:06:52;;;;;;;;;;;;;;;;;;348768;28;854;-72
2022/05/27 00:07:02;;;;;;;;;;;;;;;;;;348754;28;1027;-71
2022/05/27 00:07:13;;;;;;;;;;;;;;;;;;348800;28;920;-71
2022/05/27 00:07:23;;;;;;;;;;;;;;;;;;348252;28;1398;-71
2022/05/27 00:07:33;;;;;;;;;;;;;;;;;;348500;28;1545;-71
2022/05/27 00:07:43;;;;;;;;;;;;;;;;;;349593;28;913;-71
2022/05/27 00:07:54;;;;;;;;;;;;;;;;;;350194;28;948;-71
2022/05/27 00:08:04;;;;;;;;;;;;;;;;;;350101;28;937;-71
2022/05/27 00:08:14;;;;;;;;;;;;;;;;;;350139;28;841;-72
2022/05/27 00:08:25;;;;;;;;;;;;;;;;;;350152;28;921;-71
2022/05/27 00:08:36;;;;;;;;;;;;;;;;;;350213;28;948;-71
2022/05/27 00:08:46;;;;;;;;;;;;;;;;;;350102;28;1228;-71
2022/05/27 00:08:57;;;;;;;;;;;;;;;;;;350171;28;901;-71
2022/05/27 00:09:08;;;;;;;;;;;;;;;;;;350099;28;1056;-70
2022/05/27 00:09:18;;;;;;;;;;;;;;;;;;350154;28;908;-71
2022/05/27 00:09:28;;;;;;;;;;;;;;;;;;350150;28;929;-71
2022/05/27 00:09:38;;;;;;;;;;;;;;;;;;350163;28;920;-71
2022/05/27 00:09:48;;;;;;;;;;;;;;;;;;350183;28;798;-71
2022/05/27 00:09:59;;;;;;;;;;;;;;;;;;350084;28;1000;-71
2022/05/27 00:10:10;;;;;;;;;;;;;;;;;;349725;28;1592;-71
2022/05/27 00:10:20;;;;;;;;;;;;;;;;;;350049;28;1627;-71
2022/05/27 00:10:30;;;;;;;;;;;;;;;;;;350073;28;1028;-71
2022/05/27 00:10:41;;;;;;;;;;;;;;;;;;350177;28;972;-71
2022/05/27 00:10:51;;;;;;;;;;;;;;;;;;350156;28;909;-71
2022/05/27 00:11:02;;;;;;;;;;;;;;;;;;350187;28;992;-71
2022/05/27 00:11:13;;;;;;;;;;;;;;;;;;349833;28;1576;-70
2022/05/27 00:11:24;;;;;;;;;;;;;;;;;;350223;28;801;-72
2022/05/27 00:11:34;;;;;;;;;;;;;;;;;;350200;28;913;-71
2022/05/27 00:11:44;;;;;;;;;;;;;;;;;;350184;28;870;-71
2022/05/27 00:11:55;;;;;;;;;;;;;;;;;;350125;28;964;-71
2022/05/27 00:12:05;;;;;;;;;;;;;;;;;;350146;28;916;-71
2022/05/27 00:12:15;;;;;;;;;;;;;;;;;;350162;28;921;-72
2022/05/27 00:12:26;;;;;;;;;;;;;;;;;;350157;28;880;-71
2022/05/27 00:12:36;;;;;;;;;;;;;;;;;;350104;28;1064;-71
2022/05/27 00:12:46;;;;;;;;;;;;;;;;;;350180;28;979;-71
2022/05/27 00:12:56;;;;;;;;;;;;;;;;;;350201;28;889;-71
2022/05/27 00:13:07;;;;;;;;;;;;;;;;;;350166;28;901;-71
2022/05/27 00:13:17;;;;;;;;;;;;;;;;;;350133;28;1116;-71
2022/05/27 00:13:28;;;;;;;;;;;;;;;;;;350125;28;940;-71
2022/05/27 00:13:39;;;;;;;;;;;;;;;;;;350217;28;968;-72
2022/05/27 00:13:50;;;;;;;;;;;;;;;;;;350174;28;932;-71
2022/05/27 00:14:00;;;;;;;;;;;;;;;;;;350188;28;940;-71
2022/05/27 00:14:10;;;;;;;;;;;;;;;;;;350177;28;869;-71
2022/05/27 00:14:21;;;;;;;;;;;;;;;;;;350082;28;909;-71
2022/05/27 00:14:31;;;;;;;;;;;;;;;;;;350175;28;936;-71
2022/05/27 00:14:41;;;;;;;;;;;;;;;;;;350163;28;932;-71
2022/05/27 00:14:51;;;;;;;;;;;;;;;;;;350188;28;801;-71
2022/05/27 00:15:02;;;;;;;;;;;;;;;;;;350171;28;963;-71
2022/05/27 00:15:12;;;;;;;;;;;;;;;;;;350103;28;990;-71
2022/05/27 00:15:23;;;;;;;;;;;;;;;;;;350192;28;907;-71
2022/05/27 00:15:33;;;;;;;;;;;;;;;;;;350271;28;877;-71
2022/05/27 00:15:43;;;;;;;;;;;;;;;;;;350140;28;988;-71
2022/05/27 00:15:53;;;;;;;;;;;;;;;;;;350166;28;952;-71
2022/05/27 00:16:04;;;;;;;;;;;;;;;;;;350125;28;928;-71
2022/05/27 00:16:14;;;;;;;;;;;;;;;;;;350156;28;853;-71
2022/05/27 00:16:25;;;;;;;;;;;;;;;;;;350130;28;1088;-71
2022/05/27 00:16:35;;;;;;;;;;;;;;;;;;350168;28;943;-71
2022/05/27 00:16:45;;;;;;;;;;;;;;;;;;350169;28;916;-71
2022/05/27 00:16:55;;;;;;;;;;;;;;;;;;350145;28;789;-71
2022/05/27 00:17:05;;;;;;;;;;;;;;;;;;350164;28;963;-71
2022/05/27 00:17:16;;;;;;;;;;;;;;;;;;350154;28;944;-71
2022/05/27 00:17:27;;;;;;;;;;;;;;;;;;350160;28;990;-71
2022/05/27 00:17:37;;;;;;;;;;;;;;;;;;350111;28;919;-71
2022/05/27 00:17:47;;;;;;;;;;;;;;;;;;350176;28;936;-71
2022/05/27 00:17:57;;;;;;;;;;;;;;;;;;350178;28;828;-71
2022/05/27 00:18:08;;;;;;;;;;;;;;;;;;350164;28;916;-71
2022/05/27 00:18:18;;;;;;;;;;;;;;;;;;350071;28;1906;-72
2022/05/27 00:18:28;;;;;;;;;;;;;;;;;;350161;28;852;-72
2022/05/27 00:18:38;;;;;;;;;;;;;;;;;;350154;28;794;-72
2022/05/27 00:18:48;;;;;;;;;;;;;;;;;;350155;28;904;-71
2022/05/27 00:18:59;;;;;;;;;;;;;;;;;;349942;28;1183;-72
2022/05/27 00:19:09;;;;;;;;;;;;;;;;;;350080;28;904;-71
2022/05/27 00:19:19;;;;;;;;;;;;;;;;;;349987;28;1008;-72
2022/05/27 00:19:30;;;;;;;;;;;;;;;;;;350061;28;991;-71
2022/05/27 00:19:41;;;;;;;;;;;;;;;;;;350005;28;991;-71
2022/05/27 00:19:51;;;;;;;;;;;;;;;;;;350063;28;999;-71
2022/05/27 00:20:02;;;;;;;;;;;;;;;;;;350097;28;948;-71
2022/05/27 00:20:12;;;;;;;;;;;;;;;;;;350030;28;999;-72
2022/05/27 00:20:22;;;;;;;;;;;;;;;;;;349982;28;991;-71
2022/05/27 00:20:33;;;;;;;;;;;;;;;;;;350019;28;1018;-71
2022/05/27 00:20:43;;;;;;;;;;;;;;;;;;350064;28;787;-71
2022/05/27 00:20:55;;;;;;;;;;;;;;;;;;350124;28;817;-72
2022/05/27 00:21:05;;;;;;;;;;;;;;;;;;350101;28;868;-71
2022/05/27 00:21:15;;;;;;;;;;;;;;;;;;350177;28;983;-72
2022/05/27 00:21:26;;;;;;;;;;;;;;;;;;350137;28;984;-71
2022/05/27 00:21:36;;;;;;;;;;;;;;;;;;350185;28;753;-72
2022/05/27 00:21:46;;;;;;;;;;;;;;;;;;350135;28;766;-71
2022/05/27 00:21:57;;;;;;;;;;;;;;;;;;350137;28;1034;-72
2022/05/27 00:22:08;;;;;;;;;;;;;;;;;;350137;28;936;-71
2022/05/27 00:22:18;;;;;;;;;;;;;;;;;;350130;28;979;-72
2022/05/27 00:22:29;;;;;;;;;;;;;;;;;;350170;28;932;-71
2022/05/27 00:22:39;;;;;;;;;;;;;;;;;;350109;28;915;-71
2022/05/27 00:22:49;;;;;;;;;;;;;;;;;;350160;28;991;-71
2022/05/27 00:22:59;;;;;;;;;;;;;;;;;;350211;28;813;-72
2022/05/27 00:23:10;;;;;;;;;;;;;;;;;;350206;28;845;-70
2022/05/27 00:23:20;;;;;;;;;;;;;;;;;;350157;28;988;-71
2022/05/27 00:23:31;;;;;;;;;;;;;;;;;;350130;28;920;-71
2022/05/27 00:23:41;;;;;;;;;;;;;;;;;;350186;28;873;-71
2022/05/27 00:23:52;;;;;;;;;;;;;;;;;;350152;28;991;-71
2022/05/27 00:24:02;;;;;;;;;;;;;;;;;;350144;28;928;-72
2022/05/27 00:24:12;;;;;;;;;;;;;;;;;;350112;28;953;-72
2022/05/27 00:24:23;;;;;;;;;;;;;;;;;;350065;28;854;-71
2022/05/27 00:24:33;;;;;;;;;;;;;;;;;;350132;28;932;-71
2022/05/27 00:24:43;;;;;;;;;;;;;;;;;;349891;28;1333;-71
2022/05/27 00:24:53;;;;;;;;;;;;;;;;;;350161;28;975;-71
2022/05/27 00:25:04;;;;;;;;;;;;;;;;;;349423;28;1509;-71
2022/05/27 00:25:15;;;;;;;;;;;;;;;;;;350034;28;1200;-71
2022/05/27 00:25:25;;;;;;;;;;;;;;;;;;350148;28;1134;-71
2022/05/27 00:25:35;;;;;;;;;;;;;;;;;;350146;28;924;-71
2022/05/27 00:25:45;;;;;;;;;;;;;;;;;;350206;28;953;-72
2022/05/27 00:25:55;;;;;;;;;;;;;;;;;;350160;28;921;-71
2022/05/27 00:26:06;;;;;;;;;;;;;;;;;;350111;28;998;-72
2022/05/27 00:26:16;;;;;;;;;;;;;;;;;;350182;28;920;-71
2022/05/27 00:26:27;;;;;;;;;;;;;;;;;;350082;28;1238;-71
2022/05/27 00:26:37;;;;;;;;;;;;;;;;;;350157;28;852;-72
2022/05/27 00:26:47;;;;;;;;;;;;;;;;;;350113;28;983;-71
2022/05/27 00:26:57;;;;;;;;;;;;;;;;;;350096;28;908;-71
2022/05/27 00:27:08;;;;;;;;;;;;;;;;;;350169;28;805;-71
2022/05/27 00:27:18;;;;;;;;;;;;;;;;;;350151;28;932;-71
2022/05/27 00:27:28;;;;;;;;;;;;;;;;;;350090;28;991;-72
2022/05/27 00:27:38;;;;;;;;;;;;;;;;;;350176;28;761;-71
2022/05/27 00:27:49;;;;;;;;;;;;;;;;;;350142;28;943;-71
2022/05/27 00:27:59;;;;;;;;;;;;;;;;;;350128;28;1039;-72
2022/05/27 00:28:10;;;;;;;;;;;;;;;;;;350156;28;983;-71
2022/05/27 00:28:20;;;;;;;;;;;;;;;;;;350181;28;983;-71
2022/05/27 00:28:31;;;;;;;;;;;;;;;;;;350130;28;940;-71
2022/05/27 00:28:41;;;;;;;;;;;;;;;;;;350121;28;1023;-72
2022/05/27 00:28:52;;;;;;;;;;;;;;;;;;350186;28;991;-71
2022/05/27 00:29:02;;;;;;;;;;;;;;;;;;350082;28;816;-71
2022/05/27 00:29:12;;;;;;;;;;;;;;;;;;350164;28;967;-72
2022/05/27 00:29:23;;;;;;;;;;;;;;;;;;350186;28;833;-72
2022/05/27 00:29:33;;;;;;;;;;;;;;;;;;350069;28;968;-72
2022/05/27 00:29:43;;;;;;;;;;;;;;;;;;350162;28;944;-71
2022/05/27 00:29:53;;;;;;;;;;;;;;;;;;350181;28;795;-71
2022/05/27 00:30:04;;;;;;;;;;;;;;;;;;350172;28;897;-71
2022/05/27 00:30:14;;;;;;;;;;;;;;;;;;348986;28;1465;-71
2022/05/27 00:30:24;;;;;;;;;;;;;;;;;;348641;28;1332;-71
2022/05/27 00:30:35;;;;;;;;;;;;;;;;;;349003;28;980;-71
2022/05/27 00:30:45;;;;;;;;;;;;;;;;;;350162;28;928;-72
2022/05/27 00:30:56;;;;;;;;;;;;;;;;;;350123;28;933;-72
2022/05/27 00:31:06;;;;;;;;;;;;;;;;;;350089;28;940;-72
2022/05/27 00:31:18;;;;;;;;;;;;;;;;;;350128;28;853;-71
2022/05/27 00:31:29;;;;;;;;;;;;;;;;;;350139;28;813;-71
2022/05/27 00:31:39;;;;;;;;;;;;;;;;;;350114;28;996;-72
2022/05/27 00:31:49;;;;;;;;;;;;;;;;;;350112;28;995;-72
2022/05/27 00:31:59;;;;;;;;;;;;;;;;;;350117;28;980;-71
2022/05/27 00:32:09;;;;;;;;;;;;;;;;;;350073;28;1060;-71
2022/05/27 00:32:19;;;;;;;;;;;;;;;;;;350138;28;917;-71
2022/05/27 00:32:30;;;;;;;;;;;;;;;;;;350013;28;1134;-72
2022/05/27 00:32:40;;;;;;;;;;;;;;;;;;350144;28;968;-71
2022/05/27 00:32:50;;;;;;;;;;;;;;;;;;350141;28;952;-71
2022/05/27 00:33:01;;;;;;;;;;;;;;;;;;350154;28;932;-71
2022/05/27 00:33:11;;;;;;;;;;;;;;;;;;350020;28;1031;-72
2022/05/27 00:33:22;;;;;;;;;;;;;;;;;;350100;28;922;-71
2022/05/27 00:33:33;;;;;;;;;;;;;;;;;;350082;28;1020;-71
2022/05/27 00:33:43;;;;;;;;;;;;;;;;;;350167;28;932;-71
2022/05/27 00:33:53;;;;;;;;;;;;;;;;;;350129;28;984;-71
2022/05/27 00:34:03;;;;;;;;;;;;;;;;;;350122;28;844;-71
2022/05/27 00:34:14;;;;;;;;;;;;;;;;;;350095;28;960;-72
2022/05/27 00:34:24;;;;;;;;;;;;;;;;;;350150;28;1131;-72
2022/05/27 00:34:34;;;;;;;;;;;;;;;;;;350108;28;972;-71
2022/05/27 00:34:45;;;;;;;;;;;;;;;;;;349971;28;1007;-71
2022/05/27 00:34:55;;;;;;;;;;;;;;;;;;350091;28;1012;-72
2022/05/27 00:35:06;;;;;;;;;;;;;;;;;;350128;28;1041;-72
2022/05/27 00:35:16;;;;;;;;;;;;;;;;;;350067;28;1028;-71
2022/05/27 00:35:27;;;;;;;;;;;;;;;;;;350094;28;933;-72
2022/05/27 00:35:38;;;;;;;;;;;;;;;;;;350118;28;1015;-72
2022/05/27 00:35:48;;;;;;;;;;;;;;;;;;349505;28;1429;-71
2022/05/27 00:35:59;;;;;;;;;;;;;;;;;;348695;28;1359;-72
2022/05/27 00:36:10;;;;;;;;;;;;;;;;;;348797;28;794;-71
2022/05/27 00:36:20;;;;;;;;;;;;;;;;;;348756;28;1209;-71
2022/05/27 00:36:30;;;;;;;;;;;;;;;;;;348807;28;937;-71
2022/05/27 00:36:40;;;;;;;;;;;;;;;;;;348749;28;1037;-71
2022/05/27 00:36:51;;;;;;;;;;;;;;;;;;348703;28;1019;-72
2022/05/27 00:37:02;;;;;;;;;;;;;;;;;;348807;28;916;-71
2022/05/27 00:37:14;;;;;;;;;;;;;;;;;;348764;28;810;-71
2022/05/27 00:37:24;;;;;;;;;;;;;;;;;;348761;28;783;-71
2022/05/27 00:37:34;;;;;;;;;;;;;;;;;;348732;28;913;-71
2022/05/27 00:37:44;;;;;;;;;;;;;;;;;;348686;28;995;-71
2022/05/27 00:37:56;;;;;;;;;;;;;;;;;;348741;28;932;-72
2022/05/27 00:38:06;;;;;;;;;;;;;;;;;;348814;28;920;-71
2022/05/27 00:38:17;;;;;;;;;;;;;;;;;;348718;28;1069;-71
2022/05/27 00:38:27;;;;;;;;;;;;;;;;;;348658;28;1971;-72
2022/05/27 00:38:38;;;;;;;;;;;;;;;;;;348735;28;924;-71
2022/05/27 00:38:49;;;;;;;;;;;;;;;;;;348795;28;960;-72
2022/05/27 00:39:00;;;;;;;;;;;;;;;;;;348782;28;936;-71
2022/05/27 00:39:10;;;;;;;;;;;;;;;;;;348753;28;913;-71
2022/05/27 00:39:20;;;;;;;;;;;;;;;;;;348735;28;940;-71
2022/05/27 00:39:31;;;;;;;;;;;;;;;;;;348733;28;943;-71
2022/05/27 00:39:41;;;;;;;;;;;;;;;;;;348690;28;1710;-72
2022/05/27 00:39:51;;;;;;;;;;;;;;;;;;349758;28;1639;-72
2022/05/27 00:40:02;;;;;;;;;;;;;;;;;;350118;28;1089;-72
2022/05/27 00:40:13;;;;;;;;;;;;;;;;;;350117;28;1093;-72
2022/05/27 00:40:24;;;;;;;;;;;;;;;;;;350125;28;996;-71
2022/05/27 00:40:36;;;;;;;;;;;;;;;;;;350108;28;940;-72
2022/05/27 00:40:55;;;;;;;;;;;;;;;;;;350115;28;912;-71
2022/05/27 00:41:06;;;;;;;;;;;;;;;;;;350126;28;845;-71
2022/05/27 00:41:16;;;;;;;;;;;;;;;;;;350123;28;781;-72
2022/05/27 00:41:27;;;;;;;;;;;;;;;;;;350072;28;854;-72
2022/05/27 00:41:37;;;;;;;;;;;;;;;;;;350141;28;967;-72
2022/05/27 00:41:47;;;;;;;;;;;;;;;;;;350127;28;1022;-71
2022/05/27 00:41:57;;;;;;;;;;;;;;;;;;350056;28;1011;-72
2022/05/27 00:42:08;;;;;;;;;;;;;;;;;;350135;28;1011;-72
2022/05/27 00:42:18;;;;;;;;;;;;;;;;;;350165;28;817;-72
2022/05/27 00:42:28;;;;;;;;;;;;;;;;;;350119;28;845;-72
2022/05/27 00:42:43;;;;;;;;;;;;;;;;;;350162;28;881;-72
2022/05/27 00:42:53;;;;;;;;;;;;;;;;;;350121;28;960;-72
2022/05/27 00:43:03;;;;;;;;;;;;;;;;;;350080;28;895;-72
2022/05/27 00:43:14;;;;;;;;;;;;;;;;;;350144;28;924;-72
2022/05/27 00:43:24;;;;;;;;;;;;;;;;;;350163;28;1027;-71
2022/05/27 00:43:34;;;;;;;;;;;;;;;;;;349988;28;961;-71
2022/05/27 00:43:45;;;;;;;;;;;;;;;;;;349962;28;1011;-72
2022/05/27 00:43:55;;;;;;;;;;;;;;;;;;350171;28;826;-72
2022/05/27 00:44:05;;;;;;;;;;;;;;;;;;350149;28;790;-72
2022/05/27 00:44:15;;;;;;;;;;;;;;;;;;350160;28;857;-71
2022/05/27 00:44:26;;;;;;;;;;;;;;;;;;349968;28;1228;-71
2022/05/27 00:44:36;;;;;;;;;;;;;;;;;;349942;28;1002;-71
2022/05/27 00:44:46;;;;;;;;;;;;;;;;;;350074;28;968;-72
2022/05/27 00:44:56;;;;;;;;;;;;;;;;;;350174;28;1112;-72
2022/05/27 00:45:12;;;;;;;;;;;;;;;;;;348691;28;1391;-72
2022/05/27 00:45:23;;;;;;;;;;;;;;;;;;348767;28;995;-71
2022/05/27 00:45:35;;;;;;;;;;;;;;;;;;348643;28;1079;-71
2022/05/27 00:45:51;;;;;;;;;;;;;;;;;;349557;28;1581;-71
2022/05/27 00:46:06;;;;;;;;;;;;;;;;;;350137;28;810;-72
2022/05/27 00:46:27;;;;;;;;;;;;;;;;;;350072;28;1100;-72
2022/05/27 00:46:39;;;;;;;;;;;;;;;;;;350138;28;987;-71
2022/05/27 00:46:50;;;;;;;;;;;;;;;;;;350026;28;1071;-71
2022/05/27 00:47:07;;;;;;;;;;;;;;;;;;350086;28;1386;-71
2022/05/27 00:47:18;;;;;;;;;;;;;;;;;;350107;28;920;-71
2022/05/27 00:47:32;;;;;;;;;;;;;;;;;;350083;28;988;-72
2022/05/27 00:47:43;;;;;;;;;;;;;;;;;;350080;28;882;-72
2022/05/27 00:47:55;;;;;;;;;;;;;;;;;;350097;28;932;-71
2022/05/27 00:48:07;;;;;;;;;;;;;;;;;;349413;28;1410;-72
2022/05/27 00:48:19;;;;;;;;;;;;;;;;;;348850;28;1577;-71
2022/05/27 00:48:31;;;;;;;;;;;;;;;;;;348729;28;845;-71
2022/05/27 00:48:41;;;;;;;;;;;;;;;;;;348742;28;936;-72
2022/05/27 00:48:53;;;;;;;;;;;;;;;;;;348702;28;956;-71
2022/05/27 00:49:08;;;;;;;;;;;;;;;;;;348749;28;949;-72
2022/05/27 00:49:26;;;;;;;;;;;;;;;;;;348628;28;858;-71
2022/05/27 00:49:51;;;;;;;;;;;;;;;;;;348325;28;1584;-72
2022/05/27 00:50:04;;;;;;;;;;;;;;;;;;348766;28;967;-72
2022/05/27 00:50:16;;;;;;;;;;;;;;;;;;348973;28;1479;-72
2022/05/27 00:50:32;;;;;;;;;;;;;;;;;;350091;28;1279;-71
2022/05/27 00:50:44;;;;;;;;;;;;;;;;;;350134;28;979;-72
2022/05/27 00:50:55;;;;;;;;;;;;;;;;;;350085;28;1265;-71
2022/05/27 00:51:10;;;;;;;;;;;;;;;;;;350124;28;964;-71
2022/05/27 00:51:23;;;;;;;;;;;;;;;;;;350086;28;1083;-72
2022/05/27 00:51:34;;;;;;;;;;;;;;;;;;350159;28;785;-72
2022/05/27 00:51:49;;;;;;;;;;;;;;;;;;348951;28;1347;-72
2022/05/27 00:52:08;;;;;;;;;;;;;;;;;;348609;28;778;-71
2022/05/27 00:52:20;;;;;;;;;;;;;;;;;;348754;28;1023;-71
2022/05/27 00:52:32;;;;;;;;;;;;;;;;;;348724;28;929;-71
2022/05/27 00:52:43;;;;;;;;;;;;;;;;;;348752;28;928;-71
2022/05/27 00:52:55;;;;;;;;;;;;;;;;;;348720;28;995;-71
2022/05/27 00:53:06;;;;;;;;;;;;;;;;;;348970;28;1660;-71
2022/05/27 00:53:20;;;;;;;;;;;;;;;;;;348763;28;929;-72
2022/05/27 00:53:35;;;;;;;;;;;;;;;;;;348731;28;984;-72
2022/05/27 00:54:11;;;;;;;;;;;;;;;;;;348754;28;1031;-71
2022/05/27 00:54:23;;;;;;;;;;;;;;;;;;346494;28;1147;-71
2022/05/27 00:54:34;;;;;;;;;;;;;;;;;;348743;28;861;-71
2022/05/27 00:54:45;;;;;;;;;;;;;;;;;;348743;28;991;-72
2022/05/27 00:54:55;;;;;;;;;;;;;;;;;;348704;28;850;-72
2022/05/27 00:55:07;;;;;;;;;;;;;;;;;;348726;28;846;-71
2022/05/27 00:55:20;;;;;;;;;;;;;;;;;;348725;28;1174;-72
2022/05/27 00:55:33;;;;;;;;;;;;;;;;;;348655;28;1060;-71
2022/05/27 00:55:46;;;;;;;;;;;;;;;;;;348734;28;924;-71
2022/05/27 00:55:58;;;;;;;;;;;;;;;;;;348709;28;916;-72
2022/05/27 00:56:09;;;;;;;;;;;;;;;;;;348761;28;972;-71
2022/05/27 00:56:21;;;;;;;;;;;;;;;;;;348721;28;933;-72
2022/05/27 00:56:33;;;;;;;;;;;;;;;;;;348727;28;979;-72
2022/05/27 00:56:45;;;;;;;;;;;;;;;;;;348762;28;810;-72
2022/05/27 00:56:57;;;;;;;;;;;;;;;;;;348733;28;968;-72
2022/05/27 00:57:10;;;;;;;;;;;;;;;;;;348682;28;941;-72
2022/05/27 00:57:22;;;;;;;;;;;;;;;;;;348737;28;940;-72
2022/05/27 00:57:35;;;;;;;;;;;;;;;;;;348751;28;983;-71
2022/05/27 00:57:53;;;;;;;;;;;;;;;;;;348682;28;928;-71
2022/05/27 00:58:21;;;;;;;;;;;;;;;;;;348698;28;865;-72
2022/05/27 00:58:40;;;;;;;;;;;;;;;;;;348711;28;829;-72
2022/05/27 00:58:55;;;;;;;;;;;;;;;;;;348751;28;814;-71
2022/05/27 00:59:07;;;;;;;;;;;;;;;;;;348738;28;1112;-72
2022/05/27 00:59:27;;;;;;;;;;;;;;;;;;348762;28;918;-71
2022/05/27 00:59:48;;;;;;;;;;;;;;;;;;348743;28;856;-72
2022/05/27 01:00:18;;;;;;;;;;;;;;;;;;348686;28;975;-72
2022/05/27 01:00:29;;;;;;;;;;;;;;;;;;348667;28;1401;-70
2022/05/27 01:00:39;;;;;;;;;;;;;;;;;;349167;28;1476;-72
2022/05/27 01:00:50;;;;;;;;;;;;;;;;;;350123;28;912;-72
2022/05/27 01:01:00;;;;;;;;;;;;;;;;;;350146;28;995;-72
2022/05/27 01:01:12;;;;;;;;;;;;;;;;;;350042;28;940;-72
2022/05/27 01:01:23;;;;;;;;;;;;;;;;;;350125;28;900;-72
2022/05/27 01:01:33;;;;;;;;;;;;;;;;;;350131;28;916;-72
2022/05/27 01:01:44;;;;;;;;;;;;;;;;;;350125;28;810;-72
2022/05/27 01:01:54;;;;;;;;;;;;;;;;;;350118;28;846;-71
2022/05/27 01:02:05;;;;;;;;;;;;;;;;;;350055;28;1120;-71
2022/05/27 01:02:15;;;;;;;;;;;;;;;;;;350064;28;985;-71
2022/05/27 01:02:25;;;;;;;;;;;;;;;;;;349791;28;1437;-73
2022/05/27 01:02:36;;;;;;;;;;;;;;;;;;349370;28;1469;-71
2022/05/27 01:02:47;;;;;;;;;;;;;;;;;;350088;28;1023;-72
2022/05/27 01:02:58;;;;;;;;;;;;;;;;;;350117;28;990;-72
2022/05/27 01:03:11;;;;;;;;;;;;;;;;;;350129;28;940;-72
2022/05/27 01:03:24;;;;;;;;;;;;;;;;;;350129;28;1047;-72
2022/05/27 01:03:35;;;;;;;;;;;;;;;;;;350066;28;938;-72
2022/05/27 01:03:46;;;;;;;;;;;;;;;;;;350093;28;1030;-72
2022/05/27 01:03:57;;;;;;;;;;;;;;;;;;350114;28;908;-72
2022/05/27 01:04:08;;;;;;;;;;;;;;;;;;350100;28;944;-71
2022/05/27 01:04:19;;;;;;;;;;;;;;;;;;350025;28;991;-72
2022/05/27 01:04:32;;;;;;;;;;;;;;;;;;350121;28;934;-72
2022/05/27 01:04:43;;;;;;;;;;;;;;;;;;350115;28;936;-71
2022/05/27 01:04:54;;;;;;;;;;;;;;;;;;349961;28;1003;-71
2022/05/27 01:05:05;;;;;;;;;;;;;;;;;;350028;28;948;-72
2022/05/27 01:05:17;;;;;;;;;;;;;;;;;;350107;28;1028;-72
2022/05/27 01:05:28;;;;;;;;;;;;;;;;;;350134;28;924;-72
2022/05/27 01:05:40;;;;;;;;;;;;;;;;;;350122;28;861;-72
2022/05/27 01:05:50;;;;;;;;;;;;;;;;;;350062;28;893;-72
2022/05/27 01:06:00;;;;;;;;;;;;;;;;;;350101;28;933;-71
2022/05/27 01:06:11;;;;;;;;;;;;;;;;;;350013;28;1000;-72
2022/05/27 01:06:21;;;;;;;;;;;;;;;;;;350135;28;889;-72
2022/05/27 01:06:31;;;;;;;;;;;;;;;;;;350006;28;901;-71
2022/05/27 01:06:41;;;;;;;;;;;;;;;;;;350101;28;925;-71
2022/05/27 01:06:52;;;;;;;;;;;;;;;;;;350094;28;790;-72
2022/05/27 01:07:02;;;;;;;;;;;;;;;;;;350139;28;786;-72
2022/05/27 01:07:13;;;;;;;;;;;;;;;;;;350053;28;969;-71
2022/05/27 01:07:23;;;;;;;;;;;;;;;;;;350039;28;924;-72
2022/05/27 01:07:33;;;;;;;;;;;;;;;;;;350095;28;858;-71
2022/05/27 01:07:44;;;;;;;;;;;;;;;;;;350075;28;860;-71
2022/05/27 01:07:56;;;;;;;;;;;;;;;;;;348508;28;1508;-72
2022/05/27 01:08:08;;;;;;;;;;;;;;;;;;348714;28;860;-72
2022/05/27 01:08:21;;;;;;;;;;;;;;;;;;348732;28;829;-72
2022/05/27 01:08:32;;;;;;;;;;;;;;;;;;348681;28;1020;-71
2022/05/27 01:08:44;;;;;;;;;;;;;;;;;;348709;28;850;-72
2022/05/27 01:08:55;;;;;;;;;;;;;;;;;;348672;28;944;-72
2022/05/27 01:09:05;;;;;;;;;;;;;;;;;;348740;28;865;-72
2022/05/27 01:09:16;;;;;;;;;;;;;;;;;;348718;28;933;-72
2022/05/27 01:09:29;;;;;;;;;;;;;;;;;;348736;28;905;-72
2022/05/27 01:09:40;;;;;;;;;;;;;;;;;;348280;28;1563;-72
2022/05/27 01:09:51;;;;;;;;;;;;;;;;;;348776;28;872;-72
2022/05/27 01:10:04;;;;;;;;;;;;;;;;;;348739;28;921;-72
2022/05/27 01:10:16;;;;;;;;;;;;;;;;;;348666;28;962;-72
2022/05/27 01:10:26;;;;;;;;;;;;;;;;;;348689;28;979;-72
2022/05/27 01:10:46;;;;;;;;;;;;;;;;;;348707;28;995;-71
2022/05/27 01:11:06;;;;;;;;;;;;;;;;;;348706;28;916;-72
2022/05/27 01:11:34;;;;;;;;;;;;;;;;;;348711;28;910;-71
2022/05/27 01:11:47;;;;;;;;;;;;;;;;;;348700;28;941;-72
2022/05/27 01:12:18;;;;;;;;;;;;;;;;;;348682;28;977;-72
2022/05/27 01:12:34;;;;;;;;;;;;;;;;;;348750;28;1003;-72
2022/05/27 01:13:03;;;;;;;;;;;;;;;;;;348594;28;1087;-72
2022/05/27 01:13:22;;;;;;;;;;;;;;;;;;348651;28;976;-72
2022/05/27 01:13:42;;;;;;;;;;;;;;;;;;348712;28;928;-72
2022/05/27 01:14:14;;;;;;;;;;;;;;;;;;348448;28;944;-72
2022/05/27 01:14:32;;;;;;;;;;;;;;;;;;348641;28;921;-72
2022/05/27 01:14:42;;;;;;;;;;;;;;;;;;348695;28;924;-72
2022/05/27 01:15:11;;;;;;;;;;;;;;;;;;348623;28;909;-72
2022/05/27 01:15:40;;;;;;;;;;;;;;;;;;348585;28;1020;-72
2022/05/27 01:16:00;;;;;;;;;;;;;;;;;;348573;28;965;-72
2022/05/27 01:16:16;;;;;;;;;;;;;;;;;;348681;28;989;-72
2022/05/27 01:16:38;;;;;;;;;;;;;;;;;;348672;28;913;-71
2022/05/27 01:16:53;;;;;;;;;;;;;;;;;;348667;28;842;-71
2022/05/27 01:17:10;;;;;;;;;;;;;;;;;;348727;28;802;-72
2022/05/27 01:17:39;;;;;;;;;;;;;;;;;;348754;28;891;-71
2022/05/27 01:17:58;;;;;;;;;;;;;;;;;;348760;28;979;-71
2022/05/27 01:18:08;;;;;;;;;;;;;;;;;;348730;28;936;-72
2022/05/27 01:18:25;;;;;;;;;;;;;;;;;;348675;28;895;-72
2022/05/27 01:20:22;;;;;;;;;;;;;;;;;;349960;28;1587;-72
2022/05/27 01:20:46;;;;;;;;;;;;;;;;;;348647;28;940;-71
2022/05/27 01:21:02;;;;;;;;;;;;;;;;;;348716;28;980;-71
2022/05/27 01:21:15;;;;;;;;;;;;;;;;;;348673;28;794;-72
2022/05/27 01:21:44;;;;;;;;;;;;;;;;;;348688;28;905;-71
2022/05/27 01:22:13;;;;;;;;;;;;;;;;;;348607;28;1055;-71
2022/05/27 01:22:43;;;;;;;;;;;;;;;;;;348703;28;916;-71
2022/05/27 01:23:12;;;;;;;;;;;;;;;;;;348671;28;984;-72
2022/05/27 01:23:46;;;;;;;;;;;;;;;;;;348665;28;1060;-72
2022/05/27 01:24:14;;;;;;;;;;;;;;;;;;344419;28;939;-71
2022/05/27 01:24:27;;;;;;;;;;;;;;;;;;344458;28;795;-72
2022/05/27 01:24:56;;;;;;;;;;;;;;;;;;344486;28;1294;-72
2022/05/27 01:25:25;;;;;;;;;;;;;;;;;;348564;28;1017;-72
2022/05/27 01:25:54;;;;;;;;;;;;;;;;;;348647;28;988;-70
2022/05/27 01:26:23;;;;;;;;;;;;;;;;;;348596;28;925;-71
2022/05/27 01:26:43;;;;;;;;;;;;;;;;;;348712;28;957;-72
2022/05/27 01:26:59;;;;;;;;;;;;;;;;;;348656;28;823;-72
2022/05/27 01:27:29;;;;;;;;;;;;;;;;;;348684;28;932;-72
2022/05/27 01:27:42;;;;;;;;;;;;;;;;;;348699;28;936;-71
2022/05/27 01:28:04;;;;;;;;;;;;;;;;;;348604;28;976;-72
2022/05/27 01:28:27;;;;;;;;;;;;;;;;;;348723;28;928;-71
2022/05/27 01:28:46;;;;;;;;;;;;;;;;;;348704;28;968;-72
2022/05/27 01:29:10;;;;;;;;;;;;;;;;;;348653;28;965;-72
2022/05/27 01:29:39;;;;;;;;;;;;;;;;;;348620;28;1064;-70
2022/05/27 01:30:07;;;;;;;;;;;;;;;;;;349552;28;1545;-72
2022/05/27 01:30:23;;;;;;;;;;;;;;;;;;350013;28;917;-71
2022/05/27 01:30:35;;;;;;;;;;;;;;;;;;349037;28;1354;-71
2022/05/27 01:30:51;;;;;;;;;;;;;;;;;;348639;28;861;-71
2022/05/27 01:31:10;;;;;;;;;;;;;;;;;;348730;28;913;-71
2022/05/27 01:31:26;;;;;;;;;;;;;;;;;;348694;28;798;-72